sensor_id;sensor_type;location;lat;lon;timestamp;temperature;humidity
32728;DHT22;55292;51.844;19.246;2022-07-29T00:01:53;10.20;99.90
32728;DHT22;55292;51.844;19.246;2022-07-29T00:06:56;10.30;99.90
32728;DHT22;55292;51.844;19.246;2022-07-29T00:12:00;10.10;99.90
32728;DHT22;55292;51.844;19.246;2022-07-29T00:17:03;10.00;99.90
32728;DHT22;55292;51.844;19.246;2022-07-29T00:22:06;9.90;99.90
32728;DHT22;55292;51.844;19.246;2022-07-29T00:27:08;9.80;99.90
32728;DHT22;55292;51.844;19.246;2022-07-29T00:32:11;9.70;99.90
32728;DHT22;55292;51.844;19.246;2022-07-29T00:37:13;9.60;99.90
32728;DHT22;55292;51.844;19.246;2022-07-29T00:42:16;9.50;99.90
32728;DHT22;55292;51.844;19.246;2022-07-29T00:47:19;9.50;99.90
32728;DHT22;55292;51.844;19.246;2022-07-29T00:52:22;9.50;99.90
32728;DHT22;55292;51.844;19.246;2022-07-29T00:57:24;9.60;99.90
32728;DHT22;55292;51.844;19.246;2022-07-29T01:02:27;9.40;99.90
32728;DHT22;55292;51.844;19.246;2022-07-29T01:07:30;9.40;99.90
32728;DHT22;55292;51.844;19.246;2022-07-29T01:12:35;9.50;99.90
32728;DHT22;55292;51.844;19.246;2022-07-29T01:17:47;9.40;99.90
32728;DHT22;55292;51.844;19.246;2022-07-29T01:33:40;9.20;99.90
32728;DHT22;55292;51.844;19.246;2022-07-29T01:39:02;9.00;99.90
32728;DHT22;55292;51.844;19.246;2022-07-29T01:44:20;9.00;99.90
32728;DHT22;55292;51.844;19.246;2022-07-29T01:49:33;8.90;99.90
32728;DHT22;55292;51.844;19.246;2022-07-29T01:54:41;8.90;99.90
32728;DHT22;55292;51.844;19.246;2022-07-29T01:59:48;8.80;99.90
32728;DHT22;55292;51.844;19.246;2022-07-29T02:04:53;8.70;99.90
32728;DHT22;55292;51.844;19.246;2022-07-29T02:09:57;8.80;99.90
32728;DHT22;55292;51.844;19.246;2022-07-29T02:15:02;8.80;99.90
32728;DHT22;55292;51.844;19.246;2022-07-29T02:20:07;8.70;99.90
32728;DHT22;55292;51.844;19.246;2022-07-29T02:25:11;9.00;99.90
32728;DHT22;55292;51.844;19.246;2022-07-29T02:30:15;9.30;99.90
32728;DHT22;55292;51.844;19.246;2022-07-29T02:35:18;9.50;99.90
32728;DHT22;55292;51.844;19.246;2022-07-29T02:40:22;9.20;99.90
32728;DHT22;55292;51.844;19.246;2022-07-29T02:45:25;8.80;99.90
32728;DHT22;55292;51.844;19.246;2022-07-29T02:50:34;9.00;99.90
32728;DHT22;55292;51.844;19.246;2022-07-29T02:55:45;9.60;99.90
32728;DHT22;55292;51.844;19.246;2022-07-29T03:00:49;9.80;99.90
32728;DHT22;55292;51.844;19.246;2022-07-29T03:05:56;9.30;99.90
32728;DHT22;55292;51.844;19.246;2022-07-29T03:11:00;9.10;99.90
32728;DHT22;55292;51.844;19.246;2022-07-29T03:16:05;9.00;99.90
32728;DHT22;55292;51.844;19.246;2022-07-29T03:21:08;9.40;99.90
32728;DHT22;55292;51.844;19.246;2022-07-29T03:26:12;10.00;99.90
32728;DHT22;55292;51.844;19.246;2022-07-29T03:31:14;10.60;99.90
32728;DHT22;55292;51.844;19.246;2022-07-29T03:36:17;11.30;99.90
32728;DHT22;55292;51.844;19.246;2022-07-29T03:41:22;12.30;99.90
32728;DHT22;55292;51.844;19.246;2022-07-29T03:46:26;13.20;99.90
32728;DHT22;55292;51.844;19.246;2022-07-29T03:51:31;13.50;99.90
32728;DHT22;55292;51.844;19.246;2022-07-29T03:56:42;14.20;99.90
32728;DHT22;55292;51.844;19.246;2022-07-29T04:01:49;15.20;99.90
32728;DHT22;55292;51.844;19.246;2022-07-29T04:06:53;15.80;99.90
32728;DHT22;55292;51.844;19.246;2022-07-29T04:11:56;16.50;99.90
32728;DHT22;55292;51.844;19.246;2022-07-29T04:17:05;17.20;99.90
32728;DHT22;55292;51.844;19.246;2022-07-29T04:22:07;17.70;99.90
32728;DHT22;55292;51.844;19.246;2022-07-29T04:27:10;18.20;99.90
32728;DHT22;55292;51.844;19.246;2022-07-29T04:32:12;18.20;99.90
32728;DHT22;55292;51.844;19.246;2022-07-29T04:37:15;18.40;99.90
32728;DHT22;55292;51.844;19.246;2022-07-29T04:42:18;18.90;99.90
32728;DHT22;55292;51.844;19.246;2022-07-29T04:47:28;19.50;99.90
32728;DHT22;55292;51.844;19.246;2022-07-29T04:52:31;19.60;99.90
32728;DHT22;55292;51.844;19.246;2022-07-29T04:57:34;20.40;99.90
32728;DHT22;55292;51.844;19.246;2022-07-29T05:02:36;20.70;99.90
32728;DHT22;55292;51.844;19.246;2022-07-29T05:07:39;21.10;99.90
32728;DHT22;55292;51.844;19.246;2022-07-29T05:12:41;21.10;99.90
32728;DHT22;55292;51.844;19.246;2022-07-29T05:17:44;21.30;99.90
32728;DHT22;55292;51.844;19.246;2022-07-29T05:22:46;21.80;99.90
32728;DHT22;55292;51.844;19.246;2022-07-29T05:27:49;22.10;99.90
32728;DHT22;55292;51.844;19.246;2022-07-29T05:32:52;22.00;99.90
32728;DHT22;55292;51.844;19.246;2022-07-29T05:37:54;22.50;99.90
32728;DHT22;55292;51.844;19.246;2022-07-29T05:42:57;23.20;99.90
32728;DHT22;55292;51.844;19.246;2022-07-29T05:48:00;23.00;99.30
32728;DHT22;55292;51.844;19.246;2022-07-29T05:53:02;23.60;97.70
32728;DHT22;55292;51.844;19.246;2022-07-29T05:58:21;23.40;96.60
32728;DHT22;55292;51.844;19.246;2022-07-29T06:03:24;23.00;96.40
32728;DHT22;55292;51.844;19.246;2022-07-29T06:08:26;23.10;96.00
32728;DHT22;55292;51.844;19.246;2022-07-29T06:13:30;21.60;97.90
32728;DHT22;55292;51.844;19.246;2022-07-29T06:18:32;20.90;99.10
32728;DHT22;55292;51.844;19.246;2022-07-29T06:23:36;20.90;99.90
32728;DHT22;55292;51.844;19.246;2022-07-29T06:28:39;20.80;99.20
32728;DHT22;55292;51.844;19.246;2022-07-29T06:33:42;20.70;99.90
32728;DHT22;55292;51.844;19.246;2022-07-29T06:38:44;21.00;99.90
32728;DHT22;55292;51.844;19.246;2022-07-29T06:43:53;21.20;99.90
32728;DHT22;55292;51.844;19.246;2022-07-29T06:48:58;21.40;99.60
32728;DHT22;55292;51.844;19.246;2022-07-29T06:54:00;21.70;98.90
32728;DHT22;55292;51.844;19.246;2022-07-29T06:59:06;21.70;98.40
32728;DHT22;55292;51.844;19.246;2022-07-29T07:04:10;21.80;98.90
32728;DHT22;55292;51.844;19.246;2022-07-29T07:09:12;21.80;97.00
32728;DHT22;55292;51.844;19.246;2022-07-29T07:14:15;22.20;98.40
32728;DHT22;55292;51.844;19.246;2022-07-29T07:19:18;22.70;97.80
32728;DHT22;55292;51.844;19.246;2022-07-29T07:24:21;22.70;94.60
32728;DHT22;55292;51.844;19.246;2022-07-29T07:29:24;22.60;94.20
32728;DHT22;55292;51.844;19.246;2022-07-29T07:34:26;23.00;95.40
32728;DHT22;55292;51.844;19.246;2022-07-29T07:39:30;22.80;92.70
32728;DHT22;55292;51.844;19.246;2022-07-29T07:44:33;22.60;93.90
32728;DHT22;55292;51.844;19.246;2022-07-29T07:49:55;23.10;95.30
32728;DHT22;55292;51.844;19.246;2022-07-29T07:54:59;23.20;92.50
32728;DHT22;55292;51.844;19.246;2022-07-29T08:00:02;23.20;91.40
32728;DHT22;55292;51.844;19.246;2022-07-29T08:05:14;22.80;92.90
32728;DHT22;55292;51.844;19.246;2022-07-29T08:10:20;22.80;92.60
32728;DHT22;55292;51.844;19.246;2022-07-29T08:15:41;22.80;92.50
32728;DHT22;55292;51.844;19.246;2022-07-29T08:20:45;23.00;90.10
32728;DHT22;55292;51.844;19.246;2022-07-29T08:25:49;23.00;90.80
32728;DHT22;55292;51.844;19.246;2022-07-29T08:30:51;23.00;91.20
32728;DHT22;55292;51.844;19.246;2022-07-29T08:35:54;23.00;91.90
32728;DHT22;55292;51.844;19.246;2022-07-29T08:40:57;23.30;89.50
32728;DHT22;55292;51.844;19.246;2022-07-29T08:46:01;23.60;90.00
32728;DHT22;55292;51.844;19.246;2022-07-29T08:51:07;24.20;89.90
32728;DHT22;55292;51.844;19.246;2022-07-29T08:56:12;24.20;87.50
32728;DHT22;55292;51.844;19.246;2022-07-29T09:01:23;24.50;88.90
32728;DHT22;55292;51.844;19.246;2022-07-29T09:06:43;24.60;84.40
32728;DHT22;55292;51.844;19.246;2022-07-29T09:11:46;24.90;82.00
32728;DHT22;55292;51.844;19.246;2022-07-29T09:21:57;24.50;83.20
32728;DHT22;55292;51.844;19.246;2022-07-29T09:27:00;24.40;82.60
32728;DHT22;55292;51.844;19.246;2022-07-29T09:32:06;24.20;81.20
32728;DHT22;55292;51.844;19.246;2022-07-29T09:37:10;24.10;81.60
32728;DHT22;55292;51.844;19.246;2022-07-29T09:42:13;24.50;81.50
32728;DHT22;55292;51.844;19.246;2022-07-29T09:47:45;24.70;83.00
32728;DHT22;55292;51.844;19.246;2022-07-29T09:52:52;24.80;81.40
32728;DHT22;55292;51.844;19.246;2022-07-29T09:58:14;25.30;79.00
32728;DHT22;55292;51.844;19.246;2022-07-29T10:03:18;24.90;75.70
32728;DHT22;55292;51.844;19.246;2022-07-29T10:08:25;24.90;74.20
32728;DHT22;55292;51.844;19.246;2022-07-29T10:13:29;24.40;77.00
32728;DHT22;55292;51.844;19.246;2022-07-29T10:18:32;24.30;75.90
32728;DHT22;55292;51.844;19.246;2022-07-29T10:23:36;24.00;79.00
32728;DHT22;55292;51.844;19.246;2022-07-29T10:28:48;24.10;80.10
32728;DHT22;55292;51.844;19.246;2022-07-29T10:34:11;24.40;77.60
32728;DHT22;55292;51.844;19.246;2022-07-29T10:44:54;24.80;77.60
32728;DHT22;55292;51.844;19.246;2022-07-29T10:50:05;24.90;78.60
32728;DHT22;55292;51.844;19.246;2022-07-29T10:55:38;25.60;78.80
32728;DHT22;55292;51.844;19.246;2022-07-29T11:00:53;25.50;72.80
32728;DHT22;55292;51.844;19.246;2022-07-29T11:05:57;25.30;77.80
32728;DHT22;55292;51.844;19.246;2022-07-29T11:16:23;25.20;74.70
32728;DHT22;55292;51.844;19.246;2022-07-29T11:21:36;25.40;75.10
32728;DHT22;55292;51.844;19.246;2022-07-29T11:27:19;25.60;73.60
32728;DHT22;55292;51.844;19.246;2022-07-29T11:32:41;25.80;72.60
32728;DHT22;55292;51.844;19.246;2022-07-29T11:37:47;25.80;69.80
32728;DHT22;55292;51.844;19.246;2022-07-29T11:43:09;26.10;71.00
32728;DHT22;55292;51.844;19.246;2022-07-29T11:48:17;26.50;68.40
32728;DHT22;55292;51.844;19.246;2022-07-29T11:53:33;25.90;68.60
32728;DHT22;55292;51.844;19.246;2022-07-29T11:58:38;26.00;69.70
32728;DHT22;55292;51.844;19.246;2022-07-29T12:03:41;26.20;68.10
32728;DHT22;55292;51.844;19.246;2022-07-29T12:08:46;26.30;71.30
32728;DHT22;55292;51.844;19.246;2022-07-29T12:13:49;26.30;68.50
32728;DHT22;55292;51.844;19.246;2022-07-29T12:18:59;25.80;70.70
32728;DHT22;55292;51.844;19.246;2022-07-29T12:24:03;26.10;71.30
32728;DHT22;55292;51.844;19.246;2022-07-29T12:29:16;25.90;72.80
32728;DHT22;55292;51.844;19.246;2022-07-29T12:34:35;26.00;69.60
32728;DHT22;55292;51.844;19.246;2022-07-29T12:39:38;26.60;69.20
32728;DHT22;55292;51.844;19.246;2022-07-29T12:44:49;26.50;68.50
32728;DHT22;55292;51.844;19.246;2022-07-29T12:50:11;26.80;70.60
32728;DHT22;55292;51.844;19.246;2022-07-29T12:55:14;26.10;70.30
32728;DHT22;55292;51.844;19.246;2022-07-29T13:00:23;25.70;69.30
32728;DHT22;55292;51.844;19.246;2022-07-29T13:05:43;25.40;74.30
32728;DHT22;55292;51.844;19.246;2022-07-29T13:10:50;25.60;72.50
32728;DHT22;55292;51.844;19.246;2022-07-29T13:16:06;25.60;72.90
32728;DHT22;55292;51.844;19.246;2022-07-29T13:21:14;25.50;74.00
32728;DHT22;55292;51.844;19.246;2022-07-29T13:26:21;25.50;72.50
32728;DHT22;55292;51.844;19.246;2022-07-29T13:31:23;25.50;71.60
32728;DHT22;55292;51.844;19.246;2022-07-29T13:36:28;25.60;70.50
32728;DHT22;55292;51.844;19.246;2022-07-29T13:41:33;25.30;71.50
32728;DHT22;55292;51.844;19.246;2022-07-29T13:46:35;25.20;72.70
32728;DHT22;55292;51.844;19.246;2022-07-29T13:51:41;25.60;72.00
32728;DHT22;55292;51.844;19.246;2022-07-29T13:56:43;25.30;73.80
32728;DHT22;55292;51.844;19.246;2022-07-29T14:01:47;25.30;72.40
32728;DHT22;55292;51.844;19.246;2022-07-29T14:06:50;25.30;71.70
32728;DHT22;55292;51.844;19.246;2022-07-29T14:11:53;25.20;72.10
32728;DHT22;55292;51.844;19.246;2022-07-29T14:16:56;25.20;71.90
32728;DHT22;55292;51.844;19.246;2022-07-29T14:21:59;25.20;71.20
32728;DHT22;55292;51.844;19.246;2022-07-29T14:27:04;25.30;71.10
32728;DHT22;55292;51.844;19.246;2022-07-29T14:32:09;25.10;72.90
32728;DHT22;55292;51.844;19.246;2022-07-29T14:37:12;24.90;72.40
32728;DHT22;55292;51.844;19.246;2022-07-29T14:42:17;24.90;71.30
32728;DHT22;55292;51.844;19.246;2022-07-29T14:47:20;24.80;71.50
32728;DHT22;55292;51.844;19.246;2022-07-29T14:52:23;24.40;73.70
32728;DHT22;55292;51.844;19.246;2022-07-29T14:57:26;24.50;76.70
32728;DHT22;55292;51.844;19.246;2022-07-29T15:02:29;24.60;75.00
32728;DHT22;55292;51.844;19.246;2022-07-29T15:07:52;24.50;75.20
32728;DHT22;55292;51.844;19.246;2022-07-29T15:12:56;24.50;74.90
32728;DHT22;55292;51.844;19.246;2022-07-29T15:17:59;24.50;75.80
32728;DHT22;55292;51.844;19.246;2022-07-29T15:23:02;24.60;75.00
32728;DHT22;55292;51.844;19.246;2022-07-29T15:28:05;24.60;74.40
32728;DHT22;55292;51.844;19.246;2022-07-29T15:33:10;24.50;75.20
32728;DHT22;55292;51.844;19.246;2022-07-29T15:38:13;24.60;75.30
32728;DHT22;55292;51.844;19.246;2022-07-29T15:43:16;24.90;77.70
32728;DHT22;55292;51.844;19.246;2022-07-29T15:48:18;25.10;74.40
32728;DHT22;55292;51.844;19.246;2022-07-29T15:53:21;24.90;74.60
32728;DHT22;55292;51.844;19.246;2022-07-29T15:58:24;24.80;75.30
32728;DHT22;55292;51.844;19.246;2022-07-29T16:03:26;24.50;76.80
32728;DHT22;55292;51.844;19.246;2022-07-29T16:08:29;24.30;78.60
32728;DHT22;55292;51.844;19.246;2022-07-29T16:13:32;24.20;76.60
32728;DHT22;55292;51.844;19.246;2022-07-29T16:18:35;24.10;77.30
32728;DHT22;55292;51.844;19.246;2022-07-29T16:23:39;24.00;77.90
32728;DHT22;55292;51.844;19.246;2022-07-29T16:28:42;24.00;77.80
32728;DHT22;55292;51.844;19.246;2022-07-29T16:33:45;24.10;77.70
32728;DHT22;55292;51.844;19.246;2022-07-29T16:38:57;24.20;78.20
32728;DHT22;55292;51.844;19.246;2022-07-29T16:44:01;23.90;78.50
32728;DHT22;55292;51.844;19.246;2022-07-29T16:49:04;23.70;79.40
32728;DHT22;55292;51.844;19.246;2022-07-29T16:54:07;23.70;79.40
32728;DHT22;55292;51.844;19.246;2022-07-29T16:59:12;23.70;79.60
32728;DHT22;55292;51.844;19.246;2022-07-29T17:04:14;23.70;79.80
32728;DHT22;55292;51.844;19.246;2022-07-29T17:09:17;23.50;80.50
32728;DHT22;55292;51.844;19.246;2022-07-29T17:14:21;23.30;81.10
32728;DHT22;55292;51.844;19.246;2022-07-29T17:19:36;23.20;81.60
32728;DHT22;55292;51.844;19.246;2022-07-29T17:24:38;23.20;82.00
32728;DHT22;55292;51.844;19.246;2022-07-29T17:29:42;22.90;82.80
32728;DHT22;55292;51.844;19.246;2022-07-29T17:34:45;22.50;84.00
32728;DHT22;55292;51.844;19.246;2022-07-29T17:39:47;22.50;84.40
32728;DHT22;55292;51.844;19.246;2022-07-29T17:44:52;22.60;84.50
32728;DHT22;55292;51.844;19.246;2022-07-29T17:49:54;22.50;85.20
32728;DHT22;55292;51.844;19.246;2022-07-29T17:54:56;22.40;85.70
32728;DHT22;55292;51.844;19.246;2022-07-29T17:59:59;22.20;86.20
32728;DHT22;55292;51.844;19.246;2022-07-29T18:05:03;21.60;86.70
32728;DHT22;55292;51.844;19.246;2022-07-29T18:10:05;21.80;87.30
32728;DHT22;55292;51.844;19.246;2022-07-29T18:15:10;21.70;87.70
32728;DHT22;55292;51.844;19.246;2022-07-29T18:20:13;21.60;88.40
32728;DHT22;55292;51.844;19.246;2022-07-29T18:25:16;21.60;88.40
32728;DHT22;55292;51.844;19.246;2022-07-29T18:30:19;21.50;88.40
32728;DHT22;55292;51.844;19.246;2022-07-29T18:35:21;21.50;88.80
32728;DHT22;55292;51.844;19.246;2022-07-29T18:40:24;21.50;88.90
32728;DHT22;55292;51.844;19.246;2022-07-29T18:45:27;21.40;89.00
32728;DHT22;55292;51.844;19.246;2022-07-29T18:50:30;21.30;90.00
32728;DHT22;55292;51.844;19.246;2022-07-29T18:55:33;21.30;89.70
32728;DHT22;55292;51.844;19.246;2022-07-29T19:00:36;21.20;90.00
32728;DHT22;55292;51.844;19.246;2022-07-29T19:05:38;21.10;90.10
32728;DHT22;55292;51.844;19.246;2022-07-29T19:10:41;21.20;90.20
32728;DHT22;55292;51.844;19.246;2022-07-29T19:15:44;21.10;90.20
32728;DHT22;55292;51.844;19.246;2022-07-29T19:20:47;21.10;90.40
32728;DHT22;55292;51.844;19.246;2022-07-29T19:25:49;21.00;90.30
32728;DHT22;55292;51.844;19.246;2022-07-29T19:30:55;21.00;90.30
32728;DHT22;55292;51.844;19.246;2022-07-29T19:35:57;20.90;90.40
32728;DHT22;55292;51.844;19.246;2022-07-29T19:41:00;20.70;90.70
32728;DHT22;55292;51.844;19.246;2022-07-29T19:46:03;20.20;91.40
32728;DHT22;55292;51.844;19.246;2022-07-29T19:51:05;20.10;91.80
32728;DHT22;55292;51.844;19.246;2022-07-29T19:56:08;20.20;91.60
32728;DHT22;55292;51.844;19.246;2022-07-29T20:01:10;20.30;91.40
32728;DHT22;55292;51.844;19.246;2022-07-29T20:06:13;20.50;91.20
32728;DHT22;55292;51.844;19.246;2022-07-29T20:11:16;20.50;91.10
32728;DHT22;55292;51.844;19.246;2022-07-29T20:16:18;20.50;91.10
32728;DHT22;55292;51.844;19.246;2022-07-29T20:21:21;20.50;90.90
32728;DHT22;55292;51.844;19.246;2022-07-29T20:26:24;20.50;90.80
32728;DHT22;55292;51.844;19.246;2022-07-29T20:31:26;20.50;90.90
32728;DHT22;55292;51.844;19.246;2022-07-29T20:36:29;20.40;91.10
32728;DHT22;55292;51.844;19.246;2022-07-29T20:41:31;20.30;91.20
32728;DHT22;55292;51.844;19.246;2022-07-29T20:46:35;20.30;91.20
32728;DHT22;55292;51.844;19.246;2022-07-29T20:51:37;20.00;91.40
32728;DHT22;55292;51.844;19.246;2022-07-29T20:56:45;19.90;91.60
32728;DHT22;55292;51.844;19.246;2022-07-29T21:01:47;20.10;91.60
32728;DHT22;55292;51.844;19.246;2022-07-29T21:06:50;20.30;91.20
32728;DHT22;55292;51.844;19.246;2022-07-29T21:11:52;20.30;91.10
32728;DHT22;55292;51.844;19.246;2022-07-29T21:16:55;20.10;91.20
32728;DHT22;55292;51.844;19.246;2022-07-29T21:21:58;20.10;91.20
32728;DHT22;55292;51.844;19.246;2022-07-29T21:27:01;20.00;91.30
32728;DHT22;55292;51.844;19.246;2022-07-29T21:32:23;19.90;91.70
32728;DHT22;55292;51.844;19.246;2022-07-29T21:37:31;19.90;91.60
32728;DHT22;55292;51.844;19.246;2022-07-29T21:42:34;19.70;91.90
32728;DHT22;55292;51.844;19.246;2022-07-29T21:47:37;19.70;91.90
32728;DHT22;55292;51.844;19.246;2022-07-29T21:52:39;19.70;92.30
32728;DHT22;55292;51.844;19.246;2022-07-29T21:57:42;19.60;92.30
32728;DHT22;55292;51.844;19.246;2022-07-29T22:02:44;19.60;92.30
32728;DHT22;55292;51.844;19.246;2022-07-29T22:07:47;19.60;92.20
32728;DHT22;55292;51.844;19.246;2022-07-29T22:13:00;19.50;92.70
32728;DHT22;55292;51.844;19.246;2022-07-29T22:18:04;19.50;92.70
32728;DHT22;55292;51.844;19.246;2022-07-29T22:23:07;19.50;93.10
32728;DHT22;55292;51.844;19.246;2022-07-29T22:28:09;19.40;93.30
32728;DHT22;55292;51.844;19.246;2022-07-29T22:33:12;19.30;93.60
32728;DHT22;55292;51.844;19.246;2022-07-29T22:38:19;19.30;94.00
32728;DHT22;55292;51.844;19.246;2022-07-29T22:43:23;19.30;94.00
32728;DHT22;55292;51.844;19.246;2022-07-29T22:48:27;19.20;94.50
32728;DHT22;55292;51.844;19.246;2022-07-29T22:53:30;19.20;94.50
32728;DHT22;55292;51.844;19.246;2022-07-29T22:58:32;19.10;95.30
32728;DHT22;55292;51.844;19.246;2022-07-29T23:03:35;18.90;95.60
32728;DHT22;55292;51.844;19.246;2022-07-29T23:08:41;18.60;97.10
32728;DHT22;55292;51.844;19.246;2022-07-29T23:13:43;18.40;97.50
32728;DHT22;55292;51.844;19.246;2022-07-29T23:18:46;18.20;99.30
32728;DHT22;55292;51.844;19.246;2022-07-29T23:23:49;17.90;99.90
32728;DHT22;55292;51.844;19.246;2022-07-29T23:28:52;17.40;99.90
32728;DHT22;55292;51.844;19.246;2022-07-29T23:33:54;17.00;99.90
32728;DHT22;55292;51.844;19.246;2022-07-29T23:38:57;16.60;99.90
32728;DHT22;55292;51.844;19.246;2022-07-29T23:43:59;16.50;99.90
32728;DHT22;55292;51.844;19.246;2022-07-29T23:49:02;16.50;99.90
32728;DHT22;55292;51.844;19.246;2022-07-29T23:54:06;16.40;99.90
32728;DHT22;55292;51.844;19.246;2022-07-29T23:59:09;16.40;99.90
